Bookmark and Share
Track history (hours):
 

Eviapetrol II

Last reported at 2014-Apr-24 15:33 UTC. Time now 2014-Apr-24 22:03 UTC.
Position N 37°36' E 024°58'.

Length 78 m; draft 4.9 m.

Type: Tanker. MMSI: 240493000.

NotesDate/timePositionNaut miles runAvg speedWind from/ knotsBaromVisibWave heightAir tempDewpointWater temp
2014-Apr-24 15:33N 37°36' E 024°58'10 9.6
2014-Apr-24 14:33N 37°26' E 024°59'1 1.1
2014-Apr-24 13:32N 37°25' E 024°58'0 0.0
2014-Apr-24 12:32N 37°25' E 024°58'0 0.0
2014-Apr-24 11:32N 37°25' E 024°58'0 0.0
2014-Apr-24 10:29N 37°25' E 024°58'0 0.0
2014-Apr-24 09:29N 37°25' E 024°58'3 2.9
2014-Apr-24 08:33N 37°28' E 024°59'10 8.9
2014-Apr-24 07:24N 37°31' E 024°47'50 9.6
2014-Apr-24 02:12N 37°39' E 023°44'6 8.9
2014-Apr-24 01:33N 37°44' E 023°40'9 8.7
2014-Apr-24 00:33N 37°49' E 023°31'9 8.2
2014-Apr-23 23:26N 37°56' E 023°23'7 7.8
2014-Apr-23 22:34N 38°01' E 023°30'3 0.2
2014-Apr-23 06:18N 38°01' E 023°33'4 5.7
2014-Apr-23 05:33N 37°57' E 023°35'9 8.5
2014-Apr-23 04:33N 37°50' E 023°40'33 8.1
2014-Apr-23 00:33N 37°48' E 024°21'1210.5
2014-Apr-22 23:26N 37°56' E 024°32'  
2014-Apr-19 03:31N 37°40' E 023°42'1010.0
2014-Apr-19 02:34N 37°49' E 023°37'1010.1
2014-Apr-19 01:33N 37°52' E 023°25'8 7.6
2014-Apr-19 00:32N 37°60' E 023°26'5 0.2
2014-Apr-18 04:33N 38°01' E 023°32'7 6.9
2014-Apr-18 03:33N 37°55' E 023°36'8 8.5
2014-Apr-18 02:33N 37°48' E 023°41'1110.3
2014-Apr-18 01:31N 37°38' E 023°47'6410.1
2014-Apr-17 19:09N 36°39' E 024°17'1710.3
2014-Apr-17 17:31N 36°24' E 024°26'2110.3
2014-Apr-17 15:31N 36°05' E 024°37'1010.6
2014-Apr-17 14:33N 35°56' E 024°43'5 0.2
2014-Apr-16 11:08N 35°52' E 024°46'6 9.6
2014-Apr-16 10:32N 35°57' E 024°43'10 9.9
2014-Apr-16 09:33N 36°05' E 024°37'11 9.9
2014-Apr-16 08:29N 36°15' E 024°31'910.0
2014-Apr-16 07:33N 36°23' E 024°26'10 9.7
2014-Apr-16 06:32N 36°32' E 024°20'9 9.2
2014-Apr-16 05:33N 36°40' E 024°15'9 8.5
2014-Apr-16 04:27N 36°49' E 024°10'8 8.5
2014-Apr-16 03:32N 36°56' E 024°07'10 9.2
2014-Apr-16 02:25N 37°05' E 024°01'3310.2
2014-Apr-15 23:12N 37°35' E 023°44'710.2
2014-Apr-15 22:33N 37°41' E 023°41'9 9.4
2014-Apr-15 21:33N 37°49' E 023°34'13 5.8
2014-Apr-15 19:22N 38°01' E 023°29'7 0.2
2014-Apr-14 15:34N 37°57' E 023°36'  

Dump ship's entire track history

sailing weather and tide predictions

Eviapetrol II — SY6858 — position and weather